Time;durP1;ratioP1;P1;durP2;ratioP2;P2;SDS_P1;SDS_P2;PMS_P1;PMS_P2;Temp;Humidity;BMP_temperature;BMP_pressure;BME280_temperature;BME280_humidity;BME280_pressure;Samples;Min_cycle;Max_cycle;Signal;HPM_P1;HPM_P2
2022/11/30 00:00:20;;;;;;;49.10;23.42;;;7.20;95.70;;;;;;4971614;28;20090;-67
2022/11/30 00:02:48;;;;;;;46.63;22.88;;;7.20;95.80;;;;;;4978013;28;20672;-67
2022/11/30 00:05:14;;;;;;;47.65;21.65;;;7.30;95.80;;;;;;4968259;28;20758;-67
2022/11/30 00:07:40;;;;;;;49.63;22.42;;;7.20;95.70;;;;;;4971407;28;20254;-67
2022/11/30 00:10:07;;;;;;;44.50;20.50;;;7.20;95.50;;;;;;4965276;28;20522;-67
2022/11/30 00:12:33;;;;;;;48.75;22.30;;;7.20;95.60;;;;;;4965370;28;20037;-67
2022/11/30 00:14:58;;;;;;;50.22;22.98;;;7.20;95.70;;;;;;4969574;28;20035;-67
2022/11/30 00:17:24;;;;;;;47.53;22.17;;;7.20;95.60;;;;;;4968698;28;20038;-67
2022/11/30 00:19:50;;;;;;;47.30;21.45;;;7.10;95.60;;;;;;4966448;28;20495;-66
2022/11/30 00:22:16;;;;;;;51.22;22.25;;;7.10;95.70;;;;;;4988958;28;20031;-67
2022/11/30 00:24:42;;;;;;;51.97;21.83;;;7.10;96.00;;;;;;4967891;28;20035;-67
2022/11/30 00:27:07;;;;;;;44.13;21.35;;;7.10;95.80;;;;;;4971959;28;20249;-66
2022/11/30 00:29:33;;;;;;;44.88;21.20;;;7.10;95.80;;;;;;4969818;28;20113;-67
2022/11/30 00:31:59;;;;;;;52.03;22.40;;;7.10;95.80;;;;;;4968631;28;20035;-67
2022/11/30 00:34:25;;;;;;;50.03;22.98;;;7.10;95.90;;;;;;4968326;28;20035;-66
2022/11/30 00:36:50;;;;;;;46.20;22.60;;;7.10;95.70;;;;;;4966334;28;20057;-66
2022/11/30 00:39:16;;;;;;;44.75;20.98;;;7.10;95.70;;;;;;4967733;28;20022;-66
2022/11/30 00:41:42;;;;;;;48.08;22.98;;;7.10;95.70;;;;;;4971539;28;20049;-66
2022/11/30 00:44:07;;;;;;;51.55;23.35;;;7.10;95.60;;;;;;4965291;28;20035;-67
2022/11/30 00:46:33;;;;;;;51.92;22.48;;;7.10;95.50;;;;;;4972588;28;20045;-67
2022/11/30 00:48:59;;;;;;;49.17;23.25;;;7.10;95.60;;;;;;4964848;28;20026;-67
2022/11/30 00:51:25;;;;;;;46.08;21.25;;;7.00;95.60;;;;;;4965837;28;20042;-67
2022/11/30 00:53:50;;;;;;;48.75;22.00;;;7.00;95.60;;;;;;4976041;28;20097;-67
2022/11/30 00:56:16;;;;;;;51.58;22.25;;;7.10;95.60;;;;;;4969481;28;20046;-67
2022/11/30 00:58:42;;;;;;;50.50;23.60;;;7.10;95.60;;;;;;4968011;28;20093;-67
2022/11/30 01:01:08;;;;;;;49.72;22.05;;;7.10;95.50;;;;;;4966976;28;20050;-67
2022/11/30 01:03:35;;;;;;;47.47;22.20;;;7.20;95.40;;;;;;4970803;28;20027;-68
2022/11/30 01:06:03;;;;;;;54.47;23.60;;;7.20;95.50;;;;;;4965744;28;20113;-67
2022/11/30 01:08:29;;;;;;;44.45;22.38;;;7.20;95.30;;;;;;4964628;28;20100;-67
2022/11/30 01:10:56;;;;;;;47.38;22.00;;;7.20;95.40;;;;;;4970422;28;20130;-68
2022/11/30 01:13:23;;;;;;;49.65;24.45;;;7.20;95.50;;;;;;4974173;28;20038;-68
2022/11/30 01:15:49;;;;;;;48.50;23.63;;;7.20;95.30;;;;;;4964010;28;20039;-67
2022/11/30 01:18:15;;;;;;;48.00;22.42;;;7.20;95.20;;;;;;4968714;28;20027;-67
2022/11/30 01:20:42;;;;;;;48.45;23.75;;;7.20;95.20;;;;;;4970205;28;20052;-67
2022/11/30 01:23:08;;;;;;;53.08;23.33;;;7.20;95.10;;;;;;4966142;28;20507;-67
2022/11/30 01:25:34;;;;;;;52.38;22.75;;;7.00;95.40;;;;;;4970031;28;20038;-67
2022/11/30 01:28:00;;;;;;;45.83;22.23;;;7.00;95.40;;;;;;4964435;28;20033;-67
2022/11/30 01:30:26;;;;;;;50.60;23.38;;;6.90;95.70;;;;;;4988200;28;20080;-67
2022/11/30 01:32:52;;;;;;;49.30;21.67;;;7.00;95.70;;;;;;4968035;28;20849;-67
2022/11/30 01:35:18;;;;;;;49.35;23.65;;;7.00;95.60;;;;;;4969038;28;20038;-67
2022/11/30 01:37:44;;;;;;;52.65;23.95;;;7.00;95.40;;;;;;4968757;28;20031;-68
2022/11/30 01:40:10;;;;;;;47.75;23.02;;;7.00;95.40;;;;;;4965361;28;20155;-67
2022/11/30 01:42:36;;;;;;;51.17;22.58;;;7.00;95.40;;;;;;4964435;28;20510;-67
2022/11/30 01:45:04;;;;;;;48.70;23.15;;;7.10;95.40;;;;;;4968381;28;20498;-67
2022/11/30 01:47:42;;;;;;;55.45;23.80;;;7.00;95.30;;;;;;4968316;28;20547;-67
2022/11/30 01:50:13;;;;;;;52.85;23.42;;;7.00;95.50;;;;;;4964586;28;20045;-67
2022/11/30 01:52:43;;;;;;;48.72;22.83;;;7.10;95.50;;;;;;4965775;28;20038;-68
2022/11/30 01:55:09;;;;;;;49.88;23.50;;;7.00;95.30;;;;;;4969536;28;20439;-67
2022/11/30 01:57:39;;;;;;;54.72;24.05;;;7.00;95.40;;;;;;4968516;28;20033;-67
2022/11/30 02:00:08;;;;;;;58.80;24.15;;;7.00;95.40;;;;;;4963906;28;20035;-67
2022/11/30 02:03:00;;;;;;;51.60;24.45;;;7.00;95.30;;;;;;4965860;28;20799;-67
2022/11/30 02:05:26;;;;;;;48.15;22.88;;;7.00;95.10;;;;;;4966263;28;20748;-67
2022/11/30 02:07:53;;;;;;;49.45;24.13;;;7.10;95.10;;;;;;4969256;28;20554;-67
2022/11/30 02:10:26;;;;;;;56.83;23.52;;;7.00;95.10;;;;;;4967252;28;20058;-67
2022/11/30 02:13:19;;;;;;;53.38;26.20;;;7.10;95.10;;;;;;4962470;28;20385;-67
2022/11/30 02:15:50;;;;;;;59.10;25.52;;;7.10;95.10;;;;;;4965297;28;20054;-67
2022/11/30 02:18:45;;;;;;;55.95;24.60;;;7.10;94.90;;;;;;4965059;28;20041;-67
2022/11/30 02:21:20;;;;;;;54.67;24.70;;;7.00;94.80;;;;;;4945345;28;20411;-68
2022/11/30 02:24:23;;;;;;;58.58;25.13;;;6.90;94.90;;;;;;4963093;28;20030;-67
2022/11/30 02:26:57;;;;;;;54.42;24.08;;;6.90;95.20;;;;;;4963238;28;20125;-67
2022/11/30 02:29:32;;;;;;;56.42;25.45;;;6.90;95.30;;;;;;4972105;28;20530;-67
2022/11/30 02:32:55;;;;;;;53.97;25.15;;;6.90;95.20;;;;;;4963790;28;20836;-67
2022/11/30 02:35:27;;;;;;;57.10;25.63;;;6.90;95.20;;;;;;4904942;29;20041;-67
2022/11/30 02:37:55;;;;;;;48.80;23.13;;;6.80;95.20;;;;;;4954039;28;20049;-67
2022/11/30 02:40:21;;;;;;;57.40;24.52;;;6.80;95.40;;;;;;4965363;28;20027;-67
2022/11/30 02:42:50;;;;;;;53.88;24.70;;;6.80;95.40;;;;;;4962744;28;20035;-67
2022/11/30 02:45:25;;;;;;;60.13;27.17;;;6.90;95.40;;;;;;4963413;28;20082;-67
2022/11/30 02:48:06;;;;;;;56.40;25.13;;;6.90;95.30;;;;;;4972023;28;20030;-67
2022/11/30 02:50:43;;;;;;;59.08;25.85;;;6.90;94.80;;;;;;4969977;28;20038;-67
2022/11/30 02:53:09;;;;;;;59.30;25.35;;;7.00;94.80;;;;;;4964312;28;20960;-67
2022/11/30 02:55:35;;;;;;;56.53;25.90;;;6.90;94.80;;;;;;4965760;28;20035;-67
2022/11/30 02:58:01;;;;;;;60.40;26.98;;;7.00;94.70;;;;;;4963767;28;20026;-68
2022/11/30 03:00:26;;;;;;;54.78;25.85;;;6.90;94.70;;;;;;4970218;28;20403;-67
2022/11/30 03:02:53;;;;;;;53.85;25.58;;;6.80;94.90;;;;;;4965224;28;20034;-67
2022/11/30 03:05:19;;;;;;;53.92;27.25;;;6.80;95.00;;;;;;4969852;28;20575;-67
2022/11/30 03:07:45;;;;;;;55.67;25.65;;;6.70;95.10;;;;;;4965193;28;20054;-67
2022/11/30 03:10:11;;;;;;;51.55;26.45;;;6.80;95.00;;;;;;4965125;28;20027;-67
2022/11/30 03:12:37;;;;;;;59.55;27.20;;;6.80;95.00;;;;;;4967437;28;20038;-67
2022/11/30 03:15:04;;;;;;;55.95;24.73;;;6.70;94.90;;;;;;4963295;28;20066;-67
2022/11/30 03:17:29;;;;;;;51.10;24.60;;;6.70;95.20;;;;;;4968780;28;20022;-67
2022/11/30 03:19:55;;;;;;;57.65;24.90;;;6.60;95.20;;;;;;4963717;28;20073;-67
2022/11/30 03:22:21;;;;;;;53.90;25.48;;;6.80;95.10;;;;;;4964631;28;20031;-67
2022/11/30 03:24:47;;;;;;;58.10;25.02;;;6.80;94.90;;;;;;4967919;28;20073;-67
2022/11/30 03:27:13;;;;;;;64.50;28.40;;;6.80;94.80;;;;;;4968276;28;20031;-67
2022/11/30 03:29:39;;;;;;;54.10;24.85;;;6.90;94.70;;;;;;4971208;28;20041;-67
2022/11/30 03:32:05;;;;;;;58.33;25.70;;;6.80;95.00;;;;;;4968701;28;20383;-67
2022/11/30 03:34:31;;;;;;;52.40;25.70;;;6.80;94.60;;;;;;4967678;28;20812;-67
2022/11/30 03:36:56;;;;;;;58.28;25.00;;;6.80;94.60;;;;;;4968892;28;20030;-67
2022/11/30 03:39:25;;;;;;;57.95;26.15;;;6.90;94.70;;;;;;4966326;28;20558;-67
2022/11/30 03:41:51;;;;;;;61.25;27.65;;;6.80;94.40;;;;;;4971489;28;20545;-67
2022/11/30 03:44:17;;;;;;;59.15;26.40;;;6.70;94.50;;;;;;4974322;28;20030;-67
2022/11/30 03:46:43;;;;;;;53.70;24.65;;;6.80;94.50;;;;;;4965866;28;20030;-69
2022/11/30 03:49:09;;;;;;;52.42;23.75;;;6.80;94.30;;;;;;4969967;28;20030;-67
2022/11/30 03:51:35;;;;;;;61.50;26.75;;;6.70;94.70;;;;;;4970175;28;20053;-67
2022/11/30 03:54:01;;;;;;;58.03;25.77;;;6.70;94.60;;;;;;4968406;28;20148;-67
2022/11/30 03:56:27;;;;;;;60.03;26.55;;;6.80;94.50;;;;;;4967414;28;20039;-67
2022/11/30 03:58:53;;;;;;;59.33;26.10;;;6.80;94.50;;;;;;4972940;28;20023;-67
2022/11/30 04:01:23;;;;;;;54.00;25.35;;;6.80;94.50;;;;;;4972650;28;20031;-67
2022/11/30 04:03:50;;;;;;;52.60;24.95;;;6.80;94.50;;;;;;4972143;28;20536;-67
2022/11/30 04:06:18;;;;;;;59.35;25.13;;;6.80;94.40;;;;;;4966858;28;20034;-67
2022/11/30 04:08:44;;;;;;;56.33;25.70;;;6.80;94.40;;;;;;4973999;28;20054;-67
2022/11/30 04:11:10;;;;;;;60.17;27.02;;;6.80;94.30;;;;;;4963611;28;20105;-67
2022/11/30 04:13:37;;;;;;;56.90;27.10;;;6.80;94.20;;;;;;4968637;28;20482;-67
2022/11/30 04:16:04;;;;;;;53.00;25.00;;;6.80;94.10;;;;;;4967280;28;20137;-67
2022/11/30 04:18:31;;;;;;;55.08;24.27;;;6.80;94.20;;;;;;4965966;28;20026;-67
2022/11/30 04:20:58;;;;;;;57.05;25.40;;;6.80;94.20;;;;;;4969873;28;20042;-67
2022/11/30 04:23:25;;;;;;;53.00;24.63;;;6.70;94.00;;;;;;4971994;28;20034;-65
2022/11/30 04:25:51;;;;;;;51.55;24.92;;;6.70;94.10;;;;;;4967014;28;20104;-64
2022/11/30 04:28:18;;;;;;;53.05;24.67;;;6.70;94.00;;;;;;4969197;28;20058;-64
2022/11/30 04:30:45;;;;;;;54.20;24.75;;;6.70;94.00;;;;;;4965266;28;20441;-64
2022/11/30 04:33:12;;;;;;;57.25;25.35;;;6.70;94.00;;;;;;4966193;28;20038;-65
2022/11/30 04:35:51;;;;;;;55.55;26.70;;;6.60;93.90;;;;;;4965262;28;20404;-64
2022/11/30 04:38:17;;;;;;;54.08;24.73;;;6.60;94.00;;;;;;4963116;28;20055;-64
2022/11/30 04:40:44;;;;;;;54.90;25.02;;;6.60;94.10;;;;;;4966501;28;20877;-65
2022/11/30 04:43:10;;;;;;;59.97;25.35;;;6.70;94.20;;;;;;4964449;28;20034;-64
2022/11/30 04:45:37;;;;;;;56.03;26.20;;;6.70;94.00;;;;;;4967967;28;20034;-64
2022/11/30 04:48:04;;;;;;;55.55;26.30;;;6.70;93.80;;;;;;4966818;28;20031;-64
2022/11/30 04:50:30;;;;;;;59.17;26.70;;;6.70;94.00;;;;;;4965668;28;20037;-64
2022/11/30 04:52:56;;;;;;;56.67;26.63;;;6.70;93.90;;;;;;4965126;28;20812;-64
2022/11/30 04:55:22;;;;;;;50.20;25.80;;;6.60;94.00;;;;;;4964635;28;20026;-65
2022/11/30 04:57:47;;;;;;;59.53;26.02;;;6.60;94.10;;;;;;4966171;28;20854;-64
2022/11/30 05:00:16;;;;;;;55.05;25.23;;;6.60;94.20;;;;;;4969110;28;20038;-64
2022/11/30 05:02:42;;;;;;;58.42;26.33;;;6.60;94.10;;;;;;4964268;28;20041;-64
2022/11/30 05:05:09;;;;;;;52.03;25.25;;;6.50;93.90;;;;;;4967908;28;20039;-64
2022/11/30 05:07:34;;;;;;;53.95;25.02;;;6.60;94.10;;;;;;4967475;28;20162;-64
2022/11/30 05:10:00;;;;;;;52.08;24.23;;;6.60;94.00;;;;;;4964740;28;20118;-65
2022/11/30 05:12:26;;;;;;;53.28;24.70;;;6.60;93.90;;;;;;4964767;28;20045;-65
2022/11/30 05:14:52;;;;;;;49.95;24.90;;;6.60;93.90;;;;;;4966181;28;20035;-64
2022/11/30 05:17:18;;;;;;;48.63;23.38;;;6.60;93.90;;;;;;4967133;28;20035;-64
2022/11/30 05:19:44;;;;;;;55.92;25.90;;;6.70;93.90;;;;;;4966381;28;20031;-64
2022/11/30 05:22:09;;;;;;;55.38;24.27;;;6.70;93.90;;;;;;4963339;28;20062;-64
2022/11/30 05:24:35;;;;;;;58.30;26.23;;;6.70;94.00;;;;;;4968771;28;20030;-64
2022/11/30 05:27:01;;;;;;;55.00;24.70;;;6.70;94.10;;;;;;4964807;28;20042;-64
2022/11/30 05:29:26;;;;;;;47.83;23.67;;;6.70;93.90;;;;;;4964824;28;20081;-64
2022/11/30 05:31:52;;;;;;;47.47;24.08;;;6.80;93.90;;;;;;4964187;28;20059;-65
2022/11/30 05:34:18;;;;;;;55.90;25.33;;;6.80;93.80;;;;;;4964497;28;20459;-64
2022/11/30 05:36:44;;;;;;;50.28;24.30;;;6.80;93.80;;;;;;4970358;28;20117;-65
2022/11/30 05:39:09;;;;;;;55.65;24.73;;;6.80;93.80;;;;;;4980729;28;20027;-65
2022/11/30 05:41:36;;;;;;;52.40;23.92;;;6.80;93.50;;;;;;4965185;28;20026;-65
2022/11/30 05:44:03;;;;;;;58.58;25.45;;;6.80;93.60;;;;;;4966507;28;20146;-64
2022/11/30 05:46:29;;;;;;;52.90;24.65;;;6.80;93.40;;;;;;4965298;28;20057;-65
2022/11/30 05:48:55;;;;;;;56.33;24.92;;;6.80;93.40;;;;;;4964831;28;20555;-64
2022/11/30 05:51:21;;;;;;;50.60;23.42;;;6.80;93.40;;;;;;4964160;28;20061;-64
2022/11/30 05:53:47;;;;;;;50.47;23.50;;;6.70;93.40;;;;;;4946100;28;20878;-64
2022/11/30 05:56:16;;;;;;;52.95;23.33;;;6.70;93.40;;;;;;4962247;28;20555;-64
2022/11/30 05:58:43;;;;;;;47.40;22.88;;;6.70;93.20;;;;;;4961283;28;20035;-64
2022/11/30 06:01:18;;;;;;;50.17;23.27;;;6.70;93.40;;;;;;4964166;28;20158;-64
2022/11/30 06:03:44;;;;;;;53.40;24.55;;;6.70;93.30;;;;;;4963970;28;20034;-64
2022/11/30 06:06:09;;;;;;;47.80;23.85;;;6.70;93.30;;;;;;4962229;28;20041;-64
2022/11/30 06:08:35;;;;;;;49.47;23.88;;;6.70;93.30;;;;;;4961413;28;20034;-64
2022/11/30 06:11:01;;;;;;;58.22;24.45;;;6.70;93.10;;;;;;4960585;28;20050;-64
2022/11/30 06:13:27;;;;;;;48.72;23.73;;;6.70;93.10;;;;;;4964432;28;20835;-65
2022/11/30 06:15:53;;;;;;;49.67;23.83;;;6.70;93.10;;;;;;4963426;28;20030;-65
2022/11/30 06:18:19;;;;;;;47.97;22.80;;;6.80;93.20;;;;;;4963646;28;20027;-66
2022/11/30 06:20:45;;;;;;;47.42;23.70;;;6.70;93.20;;;;;;4955667;28;20129;-65
2022/11/30 06:23:10;;;;;;;42.20;21.30;;;6.70;93.20;;;;;;4963092;28;20117;-66
2022/11/30 06:25:36;;;;;;;49.03;24.92;;;6.80;93.10;;;;;;4961074;28;20050;-66
2022/11/30 06:28:02;;;;;;;50.42;23.88;;;6.80;93.10;;;;;;4960474;28;20033;-66
2022/11/30 06:30:28;;;;;;;47.67;23.17;;;6.70;92.80;;;;;;4959504;28;20042;-66
2022/11/30 06:32:54;;;;;;;49.92;23.77;;;6.70;93.00;;;;;;4964214;28;20035;-66
2022/11/30 06:35:19;;;;;;;49.70;23.60;;;6.60;92.80;;;;;;4962301;28;20109;-70
2022/11/30 06:37:45;;;;;;;50.72;24.60;;;6.50;92.90;;;;;;4963870;28;20035;-67
2022/11/30 06:40:12;;;;;;;58.53;24.77;;;6.50;93.20;;;;;;4961069;28;20023;-66
2022/11/30 06:42:38;;;;;;;49.03;22.42;;;6.40;93.40;;;;;;4962012;28;20034;-64
2022/11/30 06:45:05;;;;;;;51.47;23.48;;;6.40;93.50;;;;;;4961036;28;20038;-65
2022/11/30 06:47:32;;;;;;;51.75;24.33;;;6.50;93.40;;;;;;4962840;28;20399;-65
2022/11/30 06:49:58;;;;;;;52.40;24.48;;;6.50;93.30;;;;;;4961038;28;20067;-65
2022/11/30 06:52:24;;;;;;;49.17;22.75;;;6.60;93.20;;;;;;4963343;28;20054;-64
2022/11/30 06:54:49;;;;;;;49.65;22.00;;;6.60;93.20;;;;;;4960087;28;20053;-67
2022/11/30 06:57:16;;;;;;;47.92;23.98;;;6.60;93.00;;;;;;4964100;28;20582;-65
2022/11/30 06:59:42;;;;;;;53.25;24.83;;;6.60;92.80;;;;;;4959746;28;20102;-67
2022/11/30 07:02:15;;;;;;;51.03;23.70;;;6.60;93.00;;;;;;4960963;28;20039;-66
2022/11/30 07:04:41;;;;;;;51.65;24.42;;;6.60;93.10;;;;;;4960725;28;20042;-66
2022/11/30 07:07:06;;;;;;;56.17;26.08;;;6.70;93.00;;;;;;4962771;28;20061;-66
2022/11/30 07:09:36;;;;;;;52.00;25.00;;;6.70;92.80;;;;;;4964447;28;20039;-63
2022/11/30 07:12:02;;;;;;;44.85;23.20;;;6.60;92.90;;;;;;4960924;28;20023;-64
2022/11/30 07:14:29;;;;;;;52.28;24.00;;;6.60;93.00;;;;;;4965881;28;20300;-65
2022/11/30 07:16:55;;;;;;;47.38;23.08;;;6.60;92.80;;;;;;4964972;28;20054;-63
2022/11/30 07:19:21;;;;;;;48.22;22.80;;;6.60;92.90;;;;;;4966284;28;20113;-64
2022/11/30 07:21:46;;;;;;;50.33;24.75;;;6.60;92.90;;;;;;4963947;28;20019;-64
2022/11/30 07:27:01;;;;;;;52.95;23.73;;;6.60;93.00;;;;;;4963146;28;20037;-64
2022/11/30 07:29:27;;;;;;;46.67;21.75;;;6.60;93.00;;;;;;4966355;28;20839;-64
2022/11/30 07:31:54;;;;;;;49.67;23.40;;;6.70;93.00;;;;;;4963859;28;20026;-75
2022/11/30 07:34:20;;;;;;;47.70;21.83;;;6.70;92.90;;;;;;4966537;28;20084;-76
2022/11/30 07:36:46;;;;;;;48.17;23.42;;;6.70;92.70;;;;;;4963164;28;20101;-75
2022/11/30 07:39:13;;;;;;;52.28;23.30;;;6.70;92.70;;;;;;4964002;28;20019;-67
2022/11/30 07:41:40;;;;;;;50.85;23.77;;;6.70;92.70;;;;;;4962969;28;20039;-71
2022/11/30 07:44:07;;;;;;;51.35;23.67;;;6.70;92.50;;;;;;4962740;28;20027;-76
2022/11/30 07:46:34;;;;;;;52.45;23.42;;;6.70;92.50;;;;;;4967572;28;20326;-75
2022/11/30 07:49:08;;;;;;;49.85;24.02;;;6.70;92.40;;;;;;4971286;28;20330;-75
2022/11/30 07:51:35;;;;;;;52.33;23.77;;;6.70;92.60;;;;;;4974723;28;20037;-75
2022/11/30 07:54:01;;;;;;;53.70;24.15;;;6.70;92.70;;;;;;4962558;28;20070;-76
2022/11/30 07:56:28;;;;;;;46.35;22.60;;;6.70;92.70;;;;;;4965912;28;20038;-62
2022/11/30 07:58:58;;;;;;;47.80;23.27;;;6.70;92.60;;;;;;4963055;28;20049;-65
2022/11/30 08:01:27;;;;;;;51.42;23.05;;;6.60;92.60;;;;;;4963816;28;20043;-64
2022/11/30 08:03:53;;;;;;;51.17;23.08;;;6.60;92.60;;;;;;4959069;28;20756;-64
2022/11/30 08:06:24;;;;;;;49.95;22.90;;;6.70;92.80;;;;;;4962425;28;20038;-64
2022/11/30 08:08:52;;;;;;;50.67;24.13;;;6.60;92.80;;;;;;4961686;28;20126;-64
2022/11/30 08:11:21;;;;;;;51.97;25.00;;;6.70;92.60;;;;;;4960596;28;20759;-64
2022/11/30 08:13:48;;;;;;;51.08;23.67;;;6.70;92.40;;;;;;4961105;28;20031;-64
2022/11/30 08:16:17;;;;;;;47.63;23.10;;;6.70;92.40;;;;;;4966165;28;20030;-64
2022/11/30 08:18:43;;;;;;;47.35;22.90;;;6.70;92.40;;;;;;4961275;28;20031;-65
2022/11/30 08:21:11;;;;;;;49.80;23.20;;;6.70;92.40;;;;;;4962463;28;20122;-64
2022/11/30 08:23:39;;;;;;;44.38;22.38;;;6.70;92.30;;;;;;4961278;28;20034;-64
2022/11/30 08:26:09;;;;;;;46.10;22.25;;;6.70;92.30;;;;;;4951277;28;20035;-64
2022/11/30 08:28:35;;;;;;;46.85;22.10;;;6.70;92.40;;;;;;4960854;28;20030;-65
2022/11/30 08:31:04;;;;;;;45.92;21.70;;;6.70;92.40;;;;;;4963145;28;20022;-65
2022/11/30 08:33:31;;;;;;;41.65;21.50;;;6.70;92.40;;;;;;4966558;28;20062;-64
2022/11/30 08:36:18;;;;;;;49.40;23.45;;;6.80;92.40;;;;;;4963049;28;20099;-64
2022/11/30 08:38:44;;;;;;;;;;;6.90;92.00;;;;;;4962068;28;20065;-64
2022/11/30 08:41:13;;;;;;;46.53;21.15;;;6.80;92.00;;;;;;4962919;28;19921;-64
2022/11/30 08:43:40;;;;;;;44.85;23.13;;;6.80;91.70;;;;;;4966176;28;20062;-64
2022/11/30 08:46:07;;;;;;;40.63;20.63;;;6.80;91.80;;;;;;4964519;28;20046;-64
2022/11/30 08:48:34;;;;;;;43.63;20.15;;;6.70;92.10;;;;;;4961546;28;20031;-64
2022/11/30 08:51:01;;;;;;;45.47;22.63;;;6.80;92.20;;;;;;4961824;28;20031;-64
2022/11/30 08:53:27;;;;;;;44.55;21.55;;;6.90;92.20;;;;;;4962628;28;20049;-64
2022/11/30 08:56:02;;;;;;;43.80;21.00;;;6.90;92.00;;;;;;4963698;28;20035;-64
2022/11/30 08:58:33;;;;;;;48.03;21.40;;;6.90;92.00;;;;;;4962497;28;20828;-64
2022/11/30 09:01:16;;;;;;;44.85;21.73;;;6.90;91.70;;;;;;4962018;28;20832;-64
2022/11/30 09:03:43;;;;;;;43.15;20.52;;;6.90;91.70;;;;;;4963726;28;20507;-64
2022/11/30 09:06:14;;;;;;;41.22;19.33;;;6.90;91.60;;;;;;4962073;28;20130;-64
2022/11/30 09:08:42;;;;;;;42.42;20.50;;;7.00;91.60;;;;;;4964190;28;20049;-64
2022/11/30 09:11:09;;;;;;;43.25;19.17;;;7.00;91.40;;;;;;4966113;28;20031;-64
2022/11/30 09:13:35;;;;;;;46.30;20.77;;;7.00;91.20;;;;;;4962759;28;20043;-64
2022/11/30 09:16:01;;;;;;;44.33;21.33;;;7.00;91.10;;;;;;4962907;28;20077;-64
2022/11/30 09:18:27;;;;;;;40.72;19.67;;;7.10;91.20;;;;;;4959610;28;20777;-63
2022/11/30 09:20:56;;;;;;;41.10;18.92;;;7.10;91.20;;;;;;4961438;28;20050;-70
2022/11/30 09:23:22;;;;;;;42.35;20.92;;;7.10;91.10;;;;;;4964479;28;20487;-64
2022/11/30 09:25:57;;;;;;;41.20;20.25;;;7.20;91.00;;;;;;4962119;28;20085;-64
2022/11/30 09:28:23;;;;;;;43.30;20.88;;;7.30;90.90;;;;;;4960558;28;20734;-64
2022/11/30 09:30:49;;;;;;;40.15;18.15;;;7.40;90.50;;;;;;4962843;28;20033;-64
2022/11/30 09:33:15;;;;;;;40.30;18.77;;;7.30;90.30;;;;;;4963133;28;20153;-64
2022/11/30 09:35:41;;;;;;;43.22;19.73;;;7.30;90.40;;;;;;4957574;28;20023;-64
2022/11/30 09:38:07;;;;;;;40.30;17.83;;;7.40;89.30;;;;;;4961474;28;20056;-65
2022/11/30 09:40:37;;;;;;;36.72;17.75;;;7.30;89.20;;;;;;4961423;28;20026;-64
2022/11/30 09:43:15;;;;;;;32.47;17.60;;;7.20;89.80;;;;;;4957629;28;20026;-65
2022/11/30 09:45:45;;;;;;;37.88;18.17;;;7.30;90.00;;;;;;4960531;28;20497;-65
2022/11/30 09:48:25;;;;;;;39.58;19.38;;;7.50;90.40;;;;;;4961118;28;20038;-64
2022/11/30 09:50:52;;;;;;;33.67;16.88;;;7.60;89.90;;;;;;4957848;28;20030;-65
2022/11/30 09:53:50;;;;;;;37.63;18.90;;;7.60;89.70;;;;;;4977798;28;20033;-65
2022/11/30 09:56:37;;;;;;;34.65;17.40;;;7.70;88.70;;;;;;4958311;28;20066;-66
2022/11/30 09:59:25;;;;;;;39.60;18.25;;;7.80;88.90;;;;;;4962072;28;20046;-66
2022/11/30 10:01:51;;;;;;;36.03;18.17;;;7.90;88.10;;;;;;4959703;28;20483;-69
2022/11/30 10:04:26;;;;;;;36.30;18.15;;;7.90;87.80;;;;;;4961503;28;20035;-68
2022/11/30 10:07:13;;;;;;;39.58;19.33;;;7.90;87.20;;;;;;4962014;28;20027;-69
2022/11/30 10:09:50;;;;;;;35.75;17.67;;;7.90;86.80;;;;;;4962395;28;20082;-70
2022/11/30 10:12:38;;;;;;;32.13;16.25;;;7.90;87.50;;;;;;4960156;28;20030;-69
2022/11/30 10:15:36;;;;;;;35.50;17.65;;;7.90;86.10;;;;;;4960931;28;20655;-70
2022/11/30 10:18:31;;;;;;;37.05;18.00;;;7.90;86.90;;;;;;4961119;28;20033;-69
2022/11/30 10:21:20;;;;;;;32.50;16.77;;;8.00;85.90;;;;;;4961122;28;20069;-70
2022/11/30 10:24:04;;;;;;;33.65;15.95;;;8.00;85.50;;;;;;4955682;28;20129;-70
2022/11/30 10:26:37;;;;;;;33.33;17.73;;;7.90;86.70;;;;;;4963444;28;20035;-72
2022/11/30 10:29:30;;;;;;;33.90;17.25;;;7.80;86.00;;;;;;4961765;28;20034;-70
2022/11/30 10:32:04;;;;;;;33.25;16.55;;;7.80;86.60;;;;;;4955200;28;20056;-71
2022/11/30 10:34:38;;;;;;;31.85;15.93;;;7.80;87.40;;;;;;4959955;28;20118;-69
2022/11/30 10:37:26;;;;;;;27.65;15.73;;;7.90;87.00;;;;;;4961514;28;20030;-69
2022/11/30 10:40:00;;;;;;;31.00;16.33;;;7.90;85.50;;;;;;4962349;28;20121;-69
2022/11/30 10:42:44;;;;;;;29.20;15.35;;;7.90;86.10;;;;;;4960165;28;20530;-69
2022/11/30 10:45:18;;;;;;;28.85;15.48;;;7.90;86.10;;;;;;4963526;28;20198;-69
2022/11/30 10:48:23;;;;;;;27.08;14.75;;;8.00;84.90;;;;;;4965762;28;20170;-68
2022/11/30 10:50:49;;;;;;;29.05;14.43;;;8.10;83.90;;;;;;4963563;28;20088;-70
2022/11/30 10:53:15;;;;;;;36.88;16.58;;;8.10;84.10;;;;;;4966719;28;20054;-69
2022/11/30 10:56:00;;;;;;;26.25;14.38;;;8.10;84.00;;;;;;4959604;28;20582;-69
2022/11/30 10:58:32;;;;;;;29.42;16.05;;;8.20;85.30;;;;;;4967097;28;20058;-68
2022/11/30 11:00:58;;;;;;;28.80;14.70;;;8.30;84.00;;;;;;4962958;28;20035;-68
2022/11/30 11:03:26;;;;;;;29.05;15.25;;;8.30;83.50;;;;;;4961660;28;20156;-70
2022/11/30 11:06:19;;;;;;;30.05;15.95;;;8.30;83.00;;;;;;4964622;28;20498;-69
2022/11/30 11:08:45;;;;;;;27.80;15.05;;;8.50;83.00;;;;;;4968852;28;20044;-69
2022/11/30 11:11:34;;;;;;;27.10;14.25;;;8.50;83.30;;;;;;4963946;28;20034;-69
2022/11/30 11:14:19;;;;;;;31.73;15.30;;;8.60;83.60;;;;;;4963568;28;20039;-69
2022/11/30 11:16:56;;;;;;;27.02;14.75;;;8.60;82.80;;;;;;4962314;28;20041;-69
2022/11/30 11:19:23;;;;;;;28.58;14.40;;;8.60;82.20;;;;;;4964829;28;20031;-69
2022/11/30 11:21:50;;;;;;;31.48;15.63;;;8.50;81.90;;;;;;4966395;28;20029;-68
2022/11/30 11:24:20;;;;;;;26.60;14.77;;;8.50;83.20;;;;;;4966206;28;20077;-69
2022/11/30 11:26:50;;;;;;;31.35;15.38;;;8.50;82.70;;;;;;4960298;28;20034;-68
2022/11/30 11:29:31;;;;;;;27.80;14.85;;;8.60;83.10;;;;;;4962911;28;20031;-69
2022/11/30 11:32:23;;;;;;;29.85;15.43;;;8.70;82.00;;;;;;4962737;28;20113;-69
2022/11/30 11:34:50;;;;;;;27.92;14.85;;;8.80;82.60;;;;;;4962021;28;20530;-69
2022/11/30 11:37:19;;;;;;;24.52;13.93;;;8.80;82.00;;;;;;4963595;28;20938;-68
2022/11/30 11:40:01;;;;;;;28.38;13.77;;;8.80;82.20;;;;;;4962106;28;20812;-68
2022/11/30 11:42:35;;;;;;;28.40;14.57;;;8.80;81.20;;;;;;4964893;28;20041;-67
2022/11/30 11:45:03;;;;;;;26.67;14.38;;;8.80;81.00;;;;;;4963737;28;20042;-69
2022/11/30 11:47:39;;;;;;;28.38;15.20;;;8.90;80.60;;;;;;4964441;28;20039;-69
2022/11/30 11:50:11;;;;;;;27.75;14.57;;;9.00;80.90;;;;;;4963606;28;20030;-69
2022/11/30 11:52:37;;;;;;;28.42;14.80;;;8.90;80.60;;;;;;4963208;28;20813;-69
2022/11/30 11:55:17;;;;;;;28.77;14.88;;;9.00;80.70;;;;;;4966123;28;20031;-69
2022/11/30 11:57:52;;;;;;;25.42;14.13;;;9.00;80.90;;;;;;4964534;28;20026;-68
2022/11/30 12:00:20;;;;;;;25.25;13.73;;;9.00;81.70;;;;;;4967401;28;20050;-68
2022/11/30 12:03:11;;;;;;;22.20;12.93;;;9.10;81.30;;;;;;4963595;28;20030;-68
2022/11/30 12:05:44;;;;;;;26.85;14.23;;;9.10;81.20;;;;;;4963456;28;20035;-68
2022/11/30 12:08:24;;;;;;;26.30;13.73;;;9.10;81.30;;;;;;4961562;28;20039;-68
2022/11/30 12:11:16;;;;;;;22.75;12.85;;;9.10;80.90;;;;;;4960738;28;20039;-71
2022/11/30 12:13:44;;;;;;;32.45;17.17;;;9.10;81.20;;;;;;4965027;28;20047;-68
2022/11/30 12:16:24;;;;;;;35.05;18.45;;;9.20;80.30;;;;;;4963197;28;20043;-73
2022/11/30 12:19:01;;;;;;;39.72;19.23;;;9.20;80.80;;;;;;4967686;28;20035;-69
2022/11/30 12:21:27;;;;;;;42.78;20.77;;;9.10;81.40;;;;;;4963807;28;20035;-69
2022/11/30 12:24:19;;;;;;;43.10;21.58;;;9.00;81.90;;;;;;4963833;28;20037;-69
2022/11/30 12:26:55;;;;;;;43.75;21.73;;;9.00;82.50;;;;;;4935003;28;20047;-69
2022/11/30 12:29:28;;;;;;;;;;;8.70;83.20;;;;;;4958599;28;20046;-75
2022/11/30 12:32:15;;;;;;;40.25;20.58;;;8.60;83.10;;;;;;4969287;28;20049;-75
2022/11/30 12:35:00;;;;;;;;;;;8.60;83.60;;;;;;4963121;28;20407;-75
2022/11/30 12:37:26;;;;;;;42.00;21.00;;;8.60;84.20;;;;;;4964520;28;20009;-75
2022/11/30 12:40:06;;;;;;;41.75;20.70;;;8.60;84.10;;;;;;4962695;28;20037;-75
2022/11/30 12:42:53;;;;;;;43.47;21.25;;;8.60;84.00;;;;;;4963790;28;20030;-75
2022/11/30 12:45:39;;;;;;;47.05;22.38;;;8.60;84.20;;;;;;4961054;28;20070;-75
2022/11/30 12:48:33;;;;;;;47.55;22.05;;;8.50;84.40;;;;;;4962163;28;20571;-75
2022/11/30 12:51:15;;;;;;;37.65;19.45;;;8.50;84.20;;;;;;4968016;28;20039;-75
2022/11/30 12:53:54;;;;;;;43.67;21.58;;;8.60;84.80;;;;;;4961363;28;20093;-74
2022/11/30 12:56:26;;;;;;;43.88;22.42;;;8.70;84.70;;;;;;4974366;28;20043;-73